createdAt,value
2018-11-11T00:01:32.138Z,12.40
2018-11-11T00:04:00.586Z,12.50
2018-11-11T00:06:28.995Z,12.40
2018-11-11T00:08:57.358Z,12.40
2018-11-11T00:11:25.994Z,12.40
2018-11-11T00:13:55.006Z,12.40
2018-11-11T00:16:23.378Z,12.40
2018-11-11T00:18:51.747Z,12.40
2018-11-11T00:21:20.138Z,12.40
2018-11-11T00:23:48.522Z,12.30
2018-11-11T00:26:16.878Z,12.40
2018-11-11T00:28:45.361Z,12.30
2018-11-11T00:31:13.653Z,12.30
2018-11-11T00:33:42.028Z,12.40
2018-11-11T00:36:10.418Z,12.40
2018-11-11T00:38:38.772Z,12.30
2018-11-11T00:41:07.151Z,12.30
2018-11-11T00:43:35.493Z,12.30
2018-11-11T00:46:03.865Z,12.30
2018-11-11T00:48:32.232Z,12.30
2018-11-11T00:51:00.603Z,12.30
2018-11-11T00:53:29.034Z,12.30
2018-11-11T00:56:01.695Z,12.30
2018-11-11T00:58:30.078Z,12.20
2018-11-11T01:00:59.134Z,12.30
2018-11-11T01:03:27.529Z,12.30
2018-11-11T01:05:56.317Z,12.30
2018-11-11T01:08:24.723Z,12.30
2018-11-11T01:10:53.185Z,12.30
2018-11-11T01:13:21.584Z,12.30
2018-11-11T01:15:49.897Z,12.30
2018-11-11T01:18:18.278Z,12.30
2018-11-11T01:20:46.673Z,12.30
2018-11-11T01:23:15.033Z,12.30
2018-11-11T01:25:43.421Z,12.30
2018-11-11T01:28:11.763Z,12.30
2018-11-11T01:30:40.092Z,12.40
2018-11-11T01:33:08.431Z,12.40
2018-11-11T01:35:36.906Z,12.30
2018-11-11T01:38:05.677Z,12.30
2018-11-11T01:40:34.040Z,12.30
2018-11-11T01:43:02.390Z,12.30
2018-11-11T01:45:30.785Z,12.30
2018-11-11T01:48:03.617Z,12.30
2018-11-11T01:50:32.027Z,12.30
2018-11-11T01:53:00.410Z,12.30
2018-11-11T01:55:28.784Z,12.30
2018-11-11T02:00:36.554Z,12.20
2018-11-11T02:03:05.232Z,12.30
2018-11-11T02:05:33.599Z,12.30
2018-11-11T02:08:01.970Z,12.30
2018-11-11T02:10:30.360Z,12.20
2018-11-11T02:12:59.136Z,12.10
2018-11-11T02:15:27.524Z,12.20
2018-11-11T02:17:55.866Z,12.10
2018-11-11T02:20:24.255Z,12.10
2018-11-11T02:22:52.612Z,12.00
2018-11-11T02:25:20.994Z,12.00
2018-11-11T02:27:49.418Z,11.90
2018-11-11T02:30:19.096Z,11.90
2018-11-11T02:32:47.468Z,11.90
2018-11-11T02:35:15.809Z,11.80
2018-11-11T02:37:44.305Z,11.80
2018-11-11T02:40:16.891Z,11.80
2018-11-11T02:42:45.396Z,11.80
2018-11-11T02:45:14.886Z,11.80
2018-11-11T02:47:43.296Z,11.70
2018-11-11T02:50:12.933Z,11.70
2018-11-11T02:52:42.046Z,11.70
2018-11-11T02:55:11.127Z,11.70
2018-11-11T02:57:40.260Z,11.70
2018-11-11T03:00:13.422Z,11.70
2018-11-11T03:02:42.733Z,11.70
2018-11-11T03:05:12.575Z,11.70
2018-11-11T03:07:41.023Z,11.70
2018-11-11T03:10:10.404Z,11.70
2018-11-11T03:12:39.121Z,11.60
2018-11-11T03:15:09.031Z,11.60
2018-11-11T03:17:37.597Z,11.70
2018-11-11T03:20:06.444Z,11.70
2018-11-11T03:22:34.893Z,11.70
2018-11-11T03:25:03.380Z,11.70
2018-11-11T03:27:31.731Z,11.70
2018-11-11T03:30:00.143Z,11.70
2018-11-11T03:32:28.462Z,11.80
2018-11-11T03:34:56.828Z,11.70
2018-11-11T03:37:25.200Z,11.60
2018-11-11T03:39:53.590Z,11.70
2018-11-11T03:42:21.972Z,11.70
2018-11-11T03:44:50.369Z,11.60
2018-11-11T03:47:18.698Z,11.60
2018-11-11T03:49:47.094Z,11.60
2018-11-11T03:52:15.475Z,11.60
2018-11-11T03:54:43.995Z,11.60
2018-11-11T03:57:12.369Z,11.50
2018-11-11T03:59:40.763Z,11.50
2018-11-11T04:02:09.191Z,11.60
2018-11-11T04:04:37.547Z,11.50
2018-11-11T04:07:06.645Z,11.50
2018-11-11T04:09:34.999Z,11.50
2018-11-11T04:12:03.427Z,11.40
2018-11-11T04:14:31.771Z,11.40
2018-11-11T04:17:00.127Z,11.40
2018-11-11T04:19:28.499Z,11.50
2018-11-11T04:21:56.883Z,11.50
2018-11-11T04:24:25.222Z,11.50
2018-11-11T04:26:53.618Z,11.50
2018-11-11T04:29:21.974Z,11.40
2018-11-11T04:31:50.470Z,11.40
2018-11-11T04:34:18.843Z,11.40
2018-11-11T04:36:47.220Z,11.40
2018-11-11T04:39:15.703Z,11.40
2018-11-11T04:41:44.235Z,11.30
2018-11-11T04:44:12.648Z,11.40
2018-11-11T04:46:40.967Z,11.30
2018-11-11T04:49:09.395Z,11.40
2018-11-11T04:51:37.767Z,11.40
2018-11-11T04:54:06.268Z,11.40
2018-11-11T04:56:34.664Z,11.40
2018-11-11T04:59:03.044Z,11.40
2018-11-11T05:01:31.467Z,11.30
2018-11-11T05:03:59.818Z,11.40
2018-11-11T05:06:28.207Z,11.40
2018-11-11T05:08:56.540Z,11.50
2018-11-11T05:11:24.907Z,11.40
2018-11-11T05:13:53.495Z,11.40
2018-11-11T05:16:21.875Z,11.40
2018-11-11T05:18:50.292Z,11.50
2018-11-11T05:21:18.659Z,11.50
2018-11-11T05:23:47.054Z,11.50
2018-11-11T05:26:15.392Z,11.50
2018-11-11T05:28:43.768Z,11.50
2018-11-11T05:31:12.711Z,11.50
2018-11-11T05:33:41.079Z,11.50
2018-11-11T05:36:09.478Z,11.50
2018-11-11T05:38:37.861Z,11.50
2018-11-11T05:41:06.243Z,11.60
2018-11-11T05:43:34.671Z,11.60
2018-11-11T05:46:03.012Z,11.60
2018-11-11T05:48:31.444Z,11.60
2018-11-11T05:50:59.999Z,11.60
2018-11-11T05:53:28.430Z,11.50
2018-11-11T05:55:56.803Z,11.60
2018-11-11T05:58:25.159Z,11.60
2018-11-11T06:00:53.502Z,11.60
2018-11-11T06:03:21.826Z,11.60
2018-11-11T06:05:50.178Z,11.70
2018-11-11T06:08:18.551Z,11.70
2018-11-11T06:10:46.919Z,11.80
2018-11-11T06:13:16.216Z,11.80
2018-11-11T06:15:44.627Z,11.80
2018-11-11T06:18:12.987Z,11.80
2018-11-11T06:20:41.370Z,11.80
2018-11-11T06:23:09.735Z,11.70
2018-11-11T06:25:38.115Z,11.70
2018-11-11T06:28:06.553Z,11.70
2018-11-11T06:30:34.951Z,11.70
2018-11-11T06:33:03.330Z,11.70
2018-11-11T06:35:31.731Z,11.70
2018-11-11T06:38:00.102Z,11.60
2018-11-11T06:40:28.483Z,11.60
2018-11-11T06:42:56.861Z,11.60
2018-11-11T06:45:25.203Z,11.60
2018-11-11T06:47:53.582Z,11.60
2018-11-11T06:50:21.903Z,11.60
2018-11-11T06:52:50.287Z,11.60
2018-11-11T06:55:18.713Z,11.70
2018-11-11T06:57:47.103Z,11.60
2018-11-11T07:00:17.845Z,11.60
2018-11-11T07:02:57.385Z,11.50
2018-11-11T07:05:25.725Z,11.50
2018-11-11T07:07:54.086Z,11.40
2018-11-11T07:10:22.438Z,11.40
2018-11-11T07:12:51.389Z,11.50
2018-11-11T07:15:19.910Z,11.40
2018-11-11T07:17:48.418Z,11.40
2018-11-11T07:20:16.846Z,11.40
2018-11-11T07:22:45.242Z,11.40
2018-11-11T07:25:13.779Z,11.40
2018-11-11T07:27:42.116Z,11.50
2018-11-11T07:30:10.515Z,11.50
2018-11-11T07:32:39.111Z,11.50
2018-11-11T07:35:10.211Z,11.50
2018-11-11T07:37:38.791Z,11.50
2018-11-11T07:40:09.471Z,11.50
2018-11-11T07:42:37.805Z,11.50
2018-11-11T07:45:06.249Z,11.50
2018-11-11T07:47:34.612Z,11.50
2018-11-11T07:50:03.065Z,11.50
2018-11-11T07:52:31.486Z,11.60
2018-11-11T07:54:59.953Z,11.70
2018-11-11T07:57:28.238Z,11.80
2018-11-11T07:59:56.627Z,11.90
2018-11-11T08:02:24.989Z,12.10
2018-11-11T08:04:53.519Z,12.40
2018-11-11T08:07:21.933Z,12.50
2018-11-11T08:09:50.288Z,12.70
2018-11-11T08:12:18.691Z,12.70
2018-11-11T08:14:47.067Z,12.70
2018-11-11T08:17:15.481Z,12.70
2018-11-11T08:19:43.923Z,12.80
2018-11-11T08:22:12.301Z,12.70
2018-11-11T08:24:40.709Z,12.70
2018-11-11T08:27:09.056Z,13.00
2018-11-11T08:29:37.486Z,13.20
2018-11-11T08:32:06.837Z,13.30
2018-11-11T08:34:35.155Z,13.30
2018-11-11T08:37:03.575Z,13.30
2018-11-11T08:39:31.960Z,13.30
2018-11-11T08:42:00.378Z,13.40
2018-11-11T08:44:28.757Z,13.40
2018-11-11T08:46:57.135Z,13.30
2018-11-11T08:49:25.775Z,13.30
2018-11-11T08:51:54.160Z,13.30
2018-11-11T08:54:22.554Z,13.20
2018-11-11T08:56:50.898Z,13.40
2018-11-11T08:59:19.486Z,13.50
2018-11-11T09:01:47.861Z,13.70
2018-11-11T09:04:16.238Z,14.00
2018-11-11T09:06:44.620Z,14.20
2018-11-11T09:09:12.999Z,14.30
2018-11-11T09:11:42.105Z,14.60
2018-11-11T09:14:10.469Z,15.10
2018-11-11T09:16:38.832Z,16.00
2018-11-11T09:19:07.198Z,16.60
2018-11-11T09:21:36.195Z,16.90
2018-11-11T09:24:04.758Z,16.80
2018-11-11T09:26:33.227Z,16.30
2018-11-11T09:29:01.626Z,15.70
2018-11-11T09:31:30.154Z,15.90
2018-11-11T09:33:58.496Z,16.40
2018-11-11T09:36:26.894Z,17.00
2018-11-11T09:38:55.260Z,17.40
2018-11-11T09:41:23.650Z,17.60
2018-11-11T09:43:52.056Z,17.80
2018-11-11T09:46:20.416Z,18.00
2018-11-11T09:48:48.803Z,18.00
2018-11-11T09:51:17.297Z,17.40
2018-11-11T09:53:45.729Z,17.60
2018-11-11T09:56:14.082Z,18.20
2018-11-11T09:58:42.572Z,18.70
2018-11-11T10:01:10.910Z,18.90
2018-11-11T10:03:41.784Z,19.10
2018-11-11T10:06:16.257Z,19.10
2018-11-11T10:08:49.912Z,19.50
2018-11-11T10:11:30.714Z,19.90
2018-11-11T10:14:23.524Z,20.30
2018-11-11T10:16:57.734Z,20.10
2018-11-11T10:19:36.154Z,20.20
2018-11-11T10:23:09.678Z,20.50
2018-11-11T10:25:42.498Z,20.90
2018-11-11T10:28:15.723Z,20.10
2018-11-11T10:30:49.523Z,20.50
2018-11-11T10:33:27.145Z,20.40
2018-11-11T10:36:06.862Z,18.90
2018-11-11T10:38:40.885Z,18.90
2018-11-11T10:43:20.083Z,18.60
2018-11-11T10:45:56.732Z,18.70
2018-11-11T10:48:28.969Z,19.30
2018-11-11T10:50:59.567Z,19.20
2018-11-11T10:53:27.986Z,18.60
2018-11-11T10:55:56.335Z,17.80
2018-11-11T10:58:25.105Z,17.20
2018-11-11T11:00:58.885Z,17.50
2018-11-11T11:03:32.496Z,18.70
2018-11-11T11:06:01.730Z,20.00
2018-11-11T11:08:30.121Z,21.20
2018-11-11T11:10:58.543Z,21.80
2018-11-11T11:13:27.785Z,21.80
2018-11-11T11:15:56.119Z,21.10
2018-11-11T11:18:24.538Z,20.50
2018-11-11T11:20:52.962Z,20.60
2018-11-11T11:23:22.181Z,20.80
2018-11-11T11:25:51.334Z,21.30
2018-11-11T11:28:19.642Z,21.90
2018-11-11T11:30:48.075Z,21.80
2018-11-11T11:33:16.428Z,21.10
2018-11-11T11:35:44.879Z,20.90
2018-11-11T11:38:13.248Z,20.80
2018-11-11T11:40:41.570Z,21.60
2018-11-11T11:43:09.938Z,21.80
2018-11-11T11:45:38.927Z,21.50
2018-11-11T11:48:07.360Z,21.60
2018-11-11T11:50:35.778Z,21.90
2018-11-11T11:53:04.368Z,22.60
2018-11-11T11:55:32.622Z,21.80
2018-11-11T11:58:27.541Z,20.90
2018-11-11T12:00:55.996Z,20.40
2018-11-11T12:03:24.450Z,19.30
2018-11-11T12:05:52.841Z,18.50
2018-11-11T12:08:21.341Z,18.30
2018-11-11T12:10:49.703Z,18.10
2018-11-11T12:13:18.622Z,17.50
2018-11-11T12:15:47.034Z,17.20
2018-11-11T12:18:15.452Z,17.20
2018-11-11T12:20:43.898Z,17.70
2018-11-11T12:23:12.570Z,18.20
2018-11-11T12:25:41.812Z,18.60
2018-11-11T12:28:10.587Z,18.60
2018-11-11T12:30:38.968Z,18.30
2018-11-11T12:33:07.339Z,17.70
2018-11-11T12:35:35.780Z,17.80
2018-11-11T12:38:04.310Z,17.90
2018-11-11T12:40:32.761Z,18.20
2018-11-11T12:43:01.188Z,19.00
2018-11-11T12:45:29.607Z,18.90
2018-11-11T12:47:57.966Z,18.50
2018-11-11T12:50:26.404Z,18.10
2018-11-11T12:52:54.737Z,17.90
2018-11-11T12:55:23.276Z,17.60
2018-11-11T12:57:51.595Z,17.30
2018-11-11T13:00:19.987Z,16.90
2018-11-11T13:02:48.419Z,16.60
2018-11-11T13:05:16.843Z,16.50
2018-11-11T13:07:47.362Z,16.40
2018-11-11T13:10:15.759Z,16.40
2018-11-11T13:12:48.296Z,16.40
2018-11-11T13:15:16.720Z,16.30
2018-11-11T13:17:45.168Z,16.30
2018-11-11T13:20:15.101Z,16.40
2018-11-11T13:22:43.648Z,16.40
2018-11-11T13:25:12.939Z,16.40
2018-11-11T13:27:41.377Z,16.30
2018-11-11T13:30:11.424Z,16.40
2018-11-11T13:32:39.836Z,16.50
2018-11-11T13:35:11.130Z,16.50
2018-11-11T13:37:39.514Z,16.50
2018-11-11T13:40:10.345Z,16.50
2018-11-11T13:42:38.770Z,16.50
2018-11-11T13:45:10.034Z,16.40
2018-11-11T13:47:38.462Z,16.40
2018-11-11T13:50:09.476Z,16.30
2018-11-11T13:52:37.867Z,16.30
2018-11-11T13:55:07.302Z,16.30
2018-11-11T13:57:35.727Z,16.40
2018-11-11T14:00:04.803Z,16.40
2018-11-11T14:02:33.237Z,16.50
2018-11-11T14:05:01.600Z,16.80
2018-11-11T14:07:30.006Z,17.40
2018-11-11T14:09:59.687Z,18.30
2018-11-11T14:12:28.091Z,18.70
2018-11-11T14:14:56.516Z,19.00
2018-11-11T14:17:25.014Z,18.80
2018-11-11T14:19:53.488Z,18.90
2018-11-11T14:22:22.849Z,18.80
2018-11-11T14:24:51.448Z,18.70
2018-11-11T14:27:19.854Z,18.30
2018-11-11T14:29:48.286Z,18.00
2018-11-11T14:32:16.778Z,17.80
2018-11-11T14:34:45.046Z,17.70
2018-11-11T14:37:13.518Z,17.50
2018-11-11T14:39:42.069Z,17.30
2018-11-11T14:42:10.503Z,17.10
2018-11-11T14:44:39.050Z,17.00
2018-11-11T14:47:07.469Z,17.00
2018-11-11T14:49:35.843Z,16.90
2018-11-11T14:52:04.459Z,16.90
2018-11-11T14:54:32.793Z,16.80
2018-11-11T14:57:01.151Z,16.80
2018-11-11T14:59:29.700Z,16.70
2018-11-11T15:01:58.113Z,16.70
2018-11-11T15:04:26.505Z,16.60
2018-11-11T15:06:55.550Z,16.70
2018-11-11T15:09:23.946Z,16.70
2018-11-11T15:11:52.360Z,16.70
2018-11-11T15:14:20.780Z,16.70
2018-11-11T15:16:49.381Z,16.80
2018-11-11T15:19:17.907Z,16.80
2018-11-11T15:21:46.194Z,16.70
2018-11-11T15:24:14.580Z,16.60
2018-11-11T15:26:42.934Z,16.50
2018-11-11T15:29:11.321Z,16.40
2018-11-11T15:31:39.788Z,16.20
2018-11-11T15:34:08.417Z,16.20
2018-11-11T15:36:37.025Z,16.20
2018-11-11T15:39:08.306Z,16.20
2018-11-11T15:41:36.990Z,16.10
2018-11-11T15:44:05.599Z,16.10
2018-11-11T15:46:34.215Z,15.90
2018-11-11T15:49:03.166Z,15.80
2018-11-11T15:51:31.848Z,15.70
2018-11-11T15:54:00.514Z,15.70
2018-11-11T15:56:29.942Z,15.60
2018-11-11T15:58:58.680Z,15.60
2018-11-11T16:01:27.560Z,15.50
2018-11-11T16:03:56.495Z,15.50
2018-11-11T16:06:25.375Z,15.40
2018-11-11T16:08:54.419Z,15.40
2018-11-11T16:11:23.309Z,15.20
2018-11-11T16:13:52.911Z,15.20
2018-11-11T16:16:21.772Z,15.20
2018-11-11T16:18:50.757Z,15.20
2018-11-11T16:21:19.384Z,15.20
2018-11-11T16:23:47.917Z,15.20
2018-11-11T16:26:16.581Z,15.20
2018-11-11T16:28:45.622Z,15.20
2018-11-11T16:31:14.026Z,15.10
2018-11-11T16:33:42.607Z,15.20
2018-11-11T16:36:11.765Z,15.20
2018-11-11T16:38:41.432Z,15.20
2018-11-11T16:41:10.633Z,15.20
2018-11-11T16:43:39.064Z,15.20
2018-11-11T16:46:07.830Z,15.10
2018-11-11T16:48:36.758Z,15.10
2018-11-11T16:51:05.441Z,15.00
2018-11-11T16:53:33.914Z,15.00
2018-11-11T16:56:02.408Z,15.10
2018-11-11T16:58:30.819Z,15.10
2018-11-11T17:00:59.235Z,15.10
2018-11-11T17:03:27.726Z,15.20
2018-11-11T17:05:56.169Z,15.10
2018-11-11T17:08:25.328Z,15.00
2018-11-11T17:10:53.822Z,15.00
2018-11-11T17:13:22.287Z,15.00
2018-11-11T17:15:51.707Z,14.80
2018-11-11T17:18:21.199Z,14.60
2018-11-11T17:20:51.209Z,14.60
2018-11-11T17:23:20.269Z,14.60
2018-11-11T17:25:48.970Z,14.50
2018-11-11T17:28:17.724Z,14.50
2018-11-11T17:30:46.317Z,14.40
2018-11-11T17:33:14.694Z,14.30
2018-11-11T17:35:43.612Z,14.30
2018-11-11T17:38:12.369Z,14.20
2018-11-11T17:40:41.054Z,14.20
2018-11-11T17:43:09.706Z,14.00
2018-11-11T17:45:38.595Z,13.90
2018-11-11T17:48:11.714Z,13.80
2018-11-11T17:50:40.671Z,13.80
2018-11-11T17:53:09.617Z,13.70
2018-11-11T17:55:38.590Z,13.70
2018-11-11T17:58:07.483Z,13.70
2018-11-11T18:00:36.251Z,13.60
2018-11-11T18:03:04.871Z,13.60
2018-11-11T18:05:33.410Z,13.60
2018-11-11T18:08:02.081Z,13.70
2018-11-11T18:10:30.756Z,13.80
2018-11-11T18:12:59.281Z,13.70
2018-11-11T18:15:29.363Z,13.60
2018-11-11T18:17:57.908Z,13.70
2018-11-11T18:20:29.593Z,13.70
2018-11-11T18:22:59.133Z,13.60
2018-11-11T18:25:28.637Z,13.60
2018-11-11T18:27:57.397Z,13.50
2018-11-11T18:30:29.039Z,13.40
2018-11-11T18:32:57.866Z,13.40
2018-11-11T18:35:26.370Z,13.30
2018-11-11T18:37:55.083Z,13.20
2018-11-11T18:40:24.982Z,13.20
2018-11-11T18:42:53.559Z,13.20
2018-11-11T18:45:25.261Z,13.30
2018-11-11T18:47:53.952Z,13.30
2018-11-11T18:50:24.860Z,13.30
2018-11-11T18:52:53.375Z,13.20
2018-11-11T18:55:21.836Z,13.20
2018-11-11T18:57:50.351Z,13.10
2018-11-11T19:00:20.094Z,13.10
2018-11-11T19:02:49.451Z,13.20
2018-11-11T19:05:18.813Z,13.20
2018-11-11T19:07:47.758Z,13.20
2018-11-11T19:10:18.506Z,13.20
2018-11-11T19:12:47.717Z,13.20
2018-11-11T19:15:17.900Z,13.20
2018-11-11T19:17:48.077Z,13.20
2018-11-11T19:20:17.867Z,13.10
2018-11-11T19:22:46.315Z,13.10
2018-11-11T19:25:16.094Z,12.90
2018-11-11T19:27:45.465Z,12.90
2018-11-11T19:30:15.060Z,13.00
2018-11-11T19:32:44.024Z,13.10
2018-11-11T19:35:13.438Z,13.10
2018-11-11T19:37:42.518Z,13.10
2018-11-11T19:40:13.740Z,13.00
2018-11-11T19:42:42.384Z,13.00
2018-11-11T19:45:12.044Z,13.00
2018-11-11T19:47:40.927Z,13.00
2018-11-11T19:50:11.168Z,13.10
2018-11-11T19:52:41.213Z,13.10
2018-11-11T19:55:10.590Z,13.10
2018-11-11T19:57:39.432Z,13.20
2018-11-11T20:00:16.342Z,13.20
2018-11-11T20:02:45.858Z,13.20
2018-11-11T20:05:14.938Z,13.10
2018-11-11T20:07:44.583Z,13.10
2018-11-11T20:10:14.036Z,13.10
2018-11-11T20:12:42.512Z,13.10
2018-11-11T20:15:13.057Z,13.10
2018-11-11T20:17:42.141Z,13.00
2018-11-11T20:20:28.130Z,13.00
2018-11-11T20:22:56.563Z,13.10
2018-11-11T20:25:24.967Z,13.10
2018-11-11T20:27:53.809Z,13.20
2018-11-11T20:30:23.423Z,13.30
2018-11-11T20:32:52.088Z,13.30
2018-11-11T20:35:23.075Z,13.40
2018-11-11T20:37:51.833Z,13.50
2018-11-11T20:40:21.390Z,13.40
2018-11-11T20:42:50.477Z,13.40
2018-11-11T20:45:21.389Z,13.40
2018-11-11T20:47:50.484Z,13.40
2018-11-11T20:50:20.273Z,13.40
2018-11-11T20:52:50.168Z,13.40
2018-11-11T20:55:19.645Z,13.40
2018-11-11T20:57:48.122Z,13.30
2018-11-11T21:00:18.670Z,13.40
2018-11-11T21:02:47.710Z,13.40
2018-11-11T21:05:17.502Z,13.40
2018-11-11T21:07:46.251Z,13.50
2018-11-11T21:10:20.857Z,13.50
2018-11-11T21:12:49.904Z,13.50
2018-11-11T21:15:19.775Z,13.50
2018-11-11T21:17:52.579Z,13.50
2018-11-11T21:20:23.440Z,13.50
2018-11-11T21:22:51.958Z,13.50
2018-11-11T21:25:20.453Z,13.40
2018-11-11T21:27:49.894Z,13.40
2018-11-11T21:30:21.621Z,13.40
2018-11-11T21:32:50.751Z,13.30
2018-11-11T21:35:19.159Z,13.10
2018-11-11T21:37:48.523Z,13.10
2018-11-11T21:40:19.071Z,13.30
2018-11-11T21:42:49.102Z,13.10
2018-11-11T21:45:18.748Z,13.10
2018-11-11T21:47:47.457Z,13.30
2018-11-11T21:50:19.080Z,13.30
2018-11-11T21:52:59.924Z,13.40
2018-11-11T21:55:28.312Z,13.40
2018-11-11T21:57:56.765Z,13.30
2018-11-11T22:00:25.465Z,13.30
2018-11-11T22:02:53.948Z,13.40
2018-11-11T22:05:22.318Z,13.50
2018-11-11T22:07:50.690Z,13.40
2018-11-11T22:10:19.225Z,13.40
2018-11-11T22:12:47.789Z,13.50
2018-11-11T22:15:16.360Z,13.50
2018-11-11T22:17:44.897Z,13.50
2018-11-11T22:20:13.645Z,13.50
2018-11-11T22:22:42.167Z,13.60
2018-11-11T22:25:10.678Z,13.50
2018-11-11T22:27:39.504Z,13.50
2018-11-11T22:30:09.772Z,13.40
2018-11-11T22:32:38.596Z,13.40
2018-11-11T22:35:08.258Z,13.50
2018-11-11T22:37:36.662Z,13.60
2018-11-11T22:40:07.075Z,13.60
2018-11-11T22:42:35.683Z,13.40
2018-11-11T22:45:04.484Z,13.40
2018-11-11T22:47:32.888Z,13.50
2018-11-11T22:50:01.828Z,13.40
2018-11-11T22:52:30.502Z,13.50
2018-11-11T22:54:59.161Z,13.60
2018-11-11T22:57:27.786Z,13.50
2018-11-11T22:59:56.783Z,13.60
2018-11-11T23:02:25.641Z,13.60
2018-11-11T23:04:54.454Z,13.60
2018-11-11T23:07:23.204Z,13.60
2018-11-11T23:09:52.060Z,13.60
2018-11-11T23:12:20.744Z,13.70
2018-11-11T23:14:49.406Z,13.60
2018-11-11T23:17:17.835Z,13.60
2018-11-11T23:19:46.224Z,13.50
2018-11-11T23:22:14.671Z,13.60
2018-11-11T23:24:43.071Z,13.50
2018-11-11T23:27:11.539Z,13.50
2018-11-11T23:29:40.007Z,13.60
2018-11-11T23:32:08.393Z,13.70
2018-11-11T23:34:36.812Z,13.70
2018-11-11T23:37:05.386Z,13.60
2018-11-11T23:39:33.750Z,13.60
2018-11-11T23:42:02.142Z,13.40
2018-11-11T23:44:30.576Z,13.40
2018-11-11T23:46:58.995Z,13.40
2018-11-11T23:49:27.386Z,13.40
2018-11-11T23:51:55.811Z,13.40
2018-11-11T23:54:24.219Z,13.40
2018-11-11T23:56:52.603Z,13.40
2018-11-11T23:59:20.976Z,13.40
